createdAt,value
2019-02-10T00:01:40.827Z,7.60
2019-02-10T00:06:45.836Z,7.60
2019-02-10T00:11:50.902Z,7.60
2019-02-10T00:16:55.926Z,7.70
2019-02-10T00:22:00.942Z,7.60
2019-02-10T00:27:05.957Z,7.70
2019-02-10T00:32:11.007Z,7.70
2019-02-10T00:37:16.033Z,7.70
2019-02-10T00:42:21.150Z,7.50
2019-02-10T00:47:26.221Z,7.60
2019-02-10T00:52:31.249Z,7.50
2019-02-10T00:57:36.265Z,7.60
2019-02-10T01:02:41.284Z,7.50
2019-02-10T01:07:46.285Z,7.50
2019-02-10T01:12:51.355Z,7.40
2019-02-10T01:17:56.370Z,7.40
2019-02-10T01:23:01.376Z,7.40
2019-02-10T01:28:06.424Z,7.40
2019-02-10T01:33:11.678Z,7.30
2019-02-10T01:38:16.682Z,7.30
2019-02-10T01:43:21.729Z,7.20
2019-02-10T01:48:27.508Z,7.20
2019-02-10T01:53:32.705Z,7.30
2019-02-10T01:58:37.755Z,7.20
2019-02-10T02:03:42.758Z,7.00
2019-02-10T02:08:47.765Z,6.90
2019-02-10T02:13:52.771Z,6.80
2019-02-10T02:18:57.772Z,6.80
2019-02-10T02:24:02.798Z,6.80
2019-02-10T02:29:07.813Z,6.80
2019-02-10T02:34:12.856Z,6.70
2019-02-10T02:39:17.911Z,6.70
2019-02-10T02:44:22.917Z,6.70
2019-02-10T02:49:27.999Z,6.70
2019-02-10T02:54:33.018Z,6.80
2019-02-10T02:59:38.049Z,6.80
2019-02-10T03:04:43.065Z,6.90
2019-02-10T03:09:48.482Z,6.90
2019-02-10T03:14:53.489Z,6.90
2019-02-10T03:19:58.508Z,6.90
2019-02-10T03:25:03.509Z,6.90
2019-02-10T03:30:08.797Z,6.90
2019-02-10T03:35:13.833Z,6.90
2019-02-10T03:40:18.864Z,6.80
2019-02-10T03:45:23.880Z,6.90
2019-02-10T03:50:28.891Z,6.80
2019-02-10T03:55:33.896Z,6.70
2019-02-10T04:00:38.913Z,6.60
2019-02-10T04:05:43.928Z,6.60
2019-02-10T04:10:48.937Z,6.60
2019-02-10T04:15:53.942Z,6.50
2019-02-10T04:20:58.948Z,6.60
2019-02-10T04:26:03.993Z,6.60
2019-02-10T04:31:09.328Z,6.70
2019-02-10T04:36:14.359Z,6.80
2019-02-10T04:41:19.429Z,6.80
2019-02-10T04:46:24.464Z,6.90
2019-02-10T04:51:29.460Z,6.80
2019-02-10T04:56:34.491Z,6.60
2019-02-10T05:01:39.503Z,6.60
2019-02-10T05:06:44.520Z,6.60
2019-02-10T05:11:49.528Z,6.60
2019-02-10T05:16:54.560Z,6.60
2019-02-10T05:21:59.681Z,6.60
2019-02-10T05:27:04.705Z,6.60
2019-02-10T05:32:09.813Z,6.60
2019-02-10T05:37:14.845Z,6.50
2019-02-10T05:42:19.940Z,6.40
2019-02-10T05:47:25.001Z,6.40
2019-02-10T05:52:30.041Z,6.40
2019-02-10T05:57:35.065Z,6.30
2019-02-10T06:02:40.111Z,6.20
2019-02-10T06:07:45.132Z,6.20
2019-02-10T06:12:50.164Z,6.20
2019-02-10T06:17:55.188Z,6.10
2019-02-10T06:23:00.375Z,6.10
2019-02-10T06:28:05.421Z,6.00
2019-02-10T06:33:10.462Z,6.00
2019-02-10T06:38:22.279Z,5.90
2019-02-10T06:43:22.126Z,5.90
2019-02-10T06:48:27.170Z,5.90
2019-02-10T06:53:32.236Z,5.80
2019-02-10T06:58:37.253Z,5.80
2019-02-10T07:03:52.311Z,5.80
2019-02-10T07:08:57.343Z,5.80
2019-02-10T07:14:03.551Z,5.80
2019-02-10T07:19:44.179Z,5.70
2019-02-10T07:24:56.996Z,5.70
2019-02-10T07:30:41.115Z,5.70
2019-02-10T07:36:17.250Z,5.60
2019-02-10T07:42:02.541Z,5.50
2019-02-10T07:47:42.830Z,5.40
2019-02-10T07:53:24.761Z,5.40
2019-02-10T07:58:55.315Z,5.40
2019-02-10T08:04:47.975Z,5.40
2019-02-10T08:10:16.070Z,5.40
2019-02-10T08:16:00.968Z,5.40
2019-02-10T08:21:34.668Z,5.40
2019-02-10T08:27:08.598Z,5.40
2019-02-10T08:32:58.203Z,5.50
2019-02-10T08:38:55.789Z,5.50
2019-02-10T08:44:28.184Z,5.50
2019-02-10T08:50:01.207Z,5.60
2019-02-10T08:55:06.875Z,5.60
2019-02-10T09:00:12.356Z,5.60
2019-02-10T09:05:17.396Z,5.60
2019-02-10T09:10:22.447Z,5.60
2019-02-10T09:15:27.486Z,5.70
2019-02-10T09:20:32.559Z,5.70
2019-02-10T09:25:37.597Z,5.80
2019-02-10T09:30:42.637Z,5.80
2019-02-10T09:35:47.682Z,5.80
2019-02-10T09:40:52.708Z,5.90
2019-02-10T09:45:57.745Z,5.90
2019-02-10T09:51:02.785Z,6.00
2019-02-10T09:56:10.788Z,6.10
2019-02-10T10:01:16.170Z,6.20
2019-02-10T10:06:24.232Z,6.30
2019-02-10T10:11:29.273Z,6.40
2019-02-10T10:16:34.308Z,6.40
2019-02-10T10:21:39.346Z,6.50
2019-02-10T10:26:44.353Z,6.50
2019-02-10T10:31:49.381Z,6.50
2019-02-10T10:36:54.416Z,6.50
2019-02-10T10:41:59.458Z,6.50
2019-02-10T10:47:04.489Z,6.50
2019-02-10T10:52:11.436Z,6.50
2019-02-10T10:57:16.470Z,6.60
2019-02-10T11:02:21.720Z,6.70
2019-02-10T11:07:26.784Z,6.70
2019-02-10T11:12:32.141Z,6.80
2019-02-10T11:17:37.173Z,6.80
2019-02-10T11:22:42.536Z,6.90
2019-02-10T11:27:47.561Z,7.00
2019-02-10T11:32:52.666Z,7.10
2019-02-10T11:37:57.720Z,7.20
2019-02-10T11:43:03.337Z,7.30
2019-02-10T11:48:08.449Z,7.40
2019-02-10T11:53:13.494Z,7.70
2019-02-10T11:58:18.538Z,7.90
2019-02-10T12:03:23.578Z,8.30
2019-02-10T12:08:35.350Z,8.60
2019-02-10T12:13:35.286Z,8.80
2019-02-10T12:18:40.325Z,8.90
2019-02-10T12:23:45.343Z,9.00
2019-02-10T12:28:50.391Z,9.00
2019-02-10T12:33:55.512Z,9.00
2019-02-10T12:39:00.694Z,9.10
2019-02-10T12:44:05.749Z,9.00
2019-02-10T12:49:10.853Z,9.10
2019-02-10T12:54:15.873Z,9.10
2019-02-10T12:59:20.897Z,9.00
2019-02-10T13:04:25.930Z,9.10
2019-02-10T13:09:30.993Z,9.00
2019-02-10T13:14:36.035Z,8.90
2019-02-10T13:19:41.055Z,9.10
2019-02-10T13:24:46.378Z,9.10
2019-02-10T13:29:51.415Z,8.90
2019-02-10T13:34:56.443Z,8.80
2019-02-10T13:40:01.486Z,8.50
2019-02-10T13:45:07.640Z,8.40
2019-02-10T13:50:13.818Z,8.30
2019-02-10T13:55:18.864Z,8.30
2019-02-10T14:00:24.045Z,8.30
2019-02-10T14:10:40.890Z,8.10
2019-02-10T14:15:45.875Z,7.90
2019-02-10T14:20:51.120Z,7.80
2019-02-10T14:25:56.169Z,7.50
2019-02-10T14:31:01.221Z,7.40
2019-02-10T14:36:06.281Z,7.30
2019-02-10T14:41:11.655Z,7.20
2019-02-10T14:46:16.717Z,7.10
2019-02-10T14:51:21.803Z,6.80
2019-02-10T14:56:26.847Z,6.40
2019-02-10T15:01:31.884Z,6.20
2019-02-10T15:06:36.937Z,5.90
2019-02-10T15:11:41.974Z,5.50
2019-02-10T15:16:47.087Z,5.30
2019-02-10T15:21:52.145Z,5.30
2019-02-10T15:26:57.189Z,5.20
2019-02-10T15:32:02.494Z,5.20
2019-02-10T15:37:07.804Z,5.20
2019-02-10T15:42:12.844Z,5.20
2019-02-10T15:47:17.892Z,5.10
2019-02-10T15:52:22.980Z,5.10
2019-02-10T15:57:28.030Z,5.00
2019-02-10T16:02:33.059Z,4.90
2019-02-10T16:07:38.826Z,4.70
2019-02-10T16:12:43.863Z,4.60
2019-02-10T16:17:48.905Z,4.30
2019-02-10T16:22:54.234Z,4.20
2019-02-10T16:27:59.407Z,3.90
2019-02-10T16:33:04.652Z,3.80
2019-02-10T16:38:09.729Z,3.70
2019-02-10T16:43:14.773Z,3.60
2019-02-10T16:48:19.829Z,3.50
2019-02-10T16:53:24.887Z,3.40
2019-02-10T16:58:29.922Z,3.20
2019-02-10T17:03:34.954Z,3.00
2019-02-10T17:08:40.997Z,2.90
2019-02-10T17:13:46.012Z,2.80
2019-02-10T17:18:51.813Z,2.70
2019-02-10T17:23:56.949Z,2.60
2019-02-10T17:29:02.067Z,2.50
2019-02-10T17:34:07.099Z,2.30
2019-02-10T17:39:16.316Z,2.20
2019-02-10T17:44:21.365Z,2.20
2019-02-10T17:49:26.405Z,2.20
2019-02-10T17:54:31.538Z,2.20
2019-02-10T17:59:36.554Z,2.20
2019-02-10T18:04:41.624Z,2.30
2019-02-10T18:09:47.076Z,2.40
2019-02-10T18:15:18.278Z,2.40
2019-02-10T18:20:32.710Z,2.50
2019-02-10T18:26:08.736Z,2.70
2019-02-10T18:31:31.269Z,2.80
2019-02-10T18:37:07.594Z,2.90
2019-02-10T18:42:37.625Z,3.00
2019-02-10T18:48:02.388Z,3.00
2019-02-10T18:53:15.429Z,3.10
2019-02-10T18:58:32.171Z,3.30
2019-02-10T19:03:45.504Z,3.40
2019-02-10T19:09:03.890Z,3.50
2019-02-10T19:14:22.993Z,3.70
2019-02-10T19:19:55.913Z,3.80
2019-02-10T19:25:26.557Z,3.90
2019-02-10T19:30:56.784Z,4.10
2019-02-10T19:36:12.247Z,4.30
2019-02-10T19:41:24.905Z,4.40
2019-02-10T19:46:47.482Z,4.60
2019-02-10T19:52:20.757Z,4.60
2019-02-10T19:57:35.461Z,4.70
2019-02-10T20:03:03.154Z,4.80
2019-02-10T20:08:25.624Z,4.90
2019-02-10T20:13:52.916Z,4.90
2019-02-10T20:19:13.705Z,5.00
2019-02-10T20:24:43.765Z,5.00
2019-02-10T20:30:02.221Z,5.00
2019-02-10T20:35:24.180Z,5.10
2019-02-10T20:40:41.923Z,5.10
2019-02-10T20:46:02.521Z,5.00
2019-02-10T20:51:29.272Z,5.00
2019-02-10T20:56:41.192Z,5.00
2019-02-10T21:02:10.966Z,5.00
2019-02-10T21:07:44.082Z,4.90
2019-02-10T21:12:55.094Z,5.00
2019-02-10T21:18:34.378Z,5.00
2019-02-10T21:23:48.155Z,5.00
2019-02-10T21:28:59.669Z,5.00
2019-02-10T21:34:23.382Z,5.00
2019-02-10T21:39:40.675Z,4.90
2019-02-10T21:45:11.960Z,4.80
2019-02-10T21:50:16.978Z,4.80
2019-02-10T21:55:22.068Z,4.70
2019-02-10T22:00:28.692Z,4.60
2019-02-10T22:05:34.774Z,4.50
2019-02-10T22:10:40.029Z,4.50
2019-02-10T22:15:46.619Z,4.40
2019-02-10T22:20:52.024Z,4.40
2019-02-10T22:25:57.192Z,4.40
2019-02-10T22:31:02.264Z,4.40
2019-02-10T22:36:07.316Z,4.40
2019-02-10T22:41:15.467Z,4.40
2019-02-10T22:46:20.506Z,4.50
2019-02-10T22:51:25.569Z,4.60
2019-02-10T22:56:30.670Z,4.70
2019-02-10T23:01:35.997Z,4.80
2019-02-10T23:06:41.046Z,4.90
2019-02-10T23:11:46.089Z,5.00
2019-02-10T23:16:51.125Z,4.90
2019-02-10T23:21:56.431Z,4.90
2019-02-10T23:27:01.446Z,4.90
2019-02-10T23:32:06.605Z,4.90
2019-02-10T23:37:11.637Z,4.90
2019-02-10T23:42:16.950Z,4.80
2019-02-10T23:47:23.020Z,4.90
2019-02-10T23:52:28.608Z,4.90
2019-02-10T23:57:33.677Z,5.00
